sensor_id;sensor_type;location;lat;lon;timestamp;P1;durP1;ratioP1;P2;durP2;ratioP2
70049;SDS011;57391;51.306;22.680;2024-01-25T00:00:28;5.90;;;1.70;;
70049;SDS011;57391;51.306;22.680;2024-01-25T00:02:50;7.20;;;1.90;;
70049;SDS011;57391;51.306;22.680;2024-01-25T00:04:51;8.80;;;2.30;;
70049;SDS011;57391;51.306;22.680;2024-01-25T00:06:53;9.60;;;2.20;;
70049;SDS011;57391;51.306;22.680;2024-01-25T00:08:55;7.70;;;1.90;;
70049;SDS011;57391;51.306;22.680;2024-01-25T00:10:57;7.00;;;1.90;;
70049;SDS011;57391;51.306;22.680;2024-01-25T00:12:59;8.10;;;2.10;;
70049;SDS011;57391;51.306;22.680;2024-01-25T00:15:00;9.60;;;2.30;;
70049;SDS011;57391;51.306;22.680;2024-01-25T00:17:02;7.40;;;1.60;;
70049;SDS011;57391;51.306;22.680;2024-01-25T00:19:04;9.20;;;2.20;;
70049;SDS011;57391;51.306;22.680;2024-01-25T00:21:06;8.90;;;2.30;;
70049;SDS011;57391;51.306;22.680;2024-01-25T00:23:08;8.80;;;2.20;;
70049;SDS011;57391;51.306;22.680;2024-01-25T00:25:09;7.60;;;1.80;;
70049;SDS011;57391;51.306;22.680;2024-01-25T00:27:11;6.20;;;1.90;;
70049;SDS011;57391;51.306;22.680;2024-01-25T00:29:13;10.10;;;2.10;;
70049;SDS011;57391;51.306;22.680;2024-01-25T00:31:16;7.40;;;1.90;;
70049;SDS011;57391;51.306;22.680;2024-01-25T00:33:18;7.90;;;2.20;;
70049;SDS011;57391;51.306;22.680;2024-01-25T00:35:20;8.70;;;2.40;;
70049;SDS011;57391;51.306;22.680;2024-01-25T00:37:22;5.80;;;1.60;;
70049;SDS011;57391;51.306;22.680;2024-01-25T00:39:24;9.00;;;2.10;;
70049;SDS011;57391;51.306;22.680;2024-01-25T00:41:27;7.70;;;1.80;;
70049;SDS011;57391;51.306;22.680;2024-01-25T00:43:33;9.50;;;2.00;;
70049;SDS011;57391;51.306;22.680;2024-01-25T00:45:35;7.50;;;2.10;;
70049;SDS011;57391;51.306;22.680;2024-01-25T00:47:37;9.00;;;2.40;;
70049;SDS011;57391;51.306;22.680;2024-01-25T00:49:40;6.80;;;1.60;;
70049;SDS011;57391;51.306;22.680;2024-01-25T00:51:45;4.50;;;1.50;;
70049;SDS011;57391;51.306;22.680;2024-01-25T00:53:48;8.70;;;2.00;;
70049;SDS011;57391;51.306;22.680;2024-01-25T00:55:50;6.60;;;1.90;;
70049;SDS011;57391;51.306;22.680;2024-01-25T00:57:52;9.10;;;1.90;;
70049;SDS011;57391;51.306;22.680;2024-01-25T00:59:56;9.00;;;2.00;;
70049;SDS011;57391;51.306;22.680;2024-01-25T01:01:58;8.30;;;2.00;;
70049;SDS011;57391;51.306;22.680;2024-01-25T01:04:02;10.40;;;2.10;;
70049;SDS011;57391;51.306;22.680;2024-01-25T01:06:04;9.50;;;2.40;;
70049;SDS011;57391;51.306;22.680;2024-01-25T01:08:07;9.30;;;2.10;;
70049;SDS011;57391;51.306;22.680;2024-01-25T01:10:09;8.00;;;2.10;;
70049;SDS011;57391;51.306;22.680;2024-01-25T01:12:11;8.10;;;1.80;;
70049;SDS011;57391;51.306;22.680;2024-01-25T01:14:13;7.50;;;1.70;;
70049;SDS011;57391;51.306;22.680;2024-01-25T01:16:15;4.70;;;1.60;;
70049;SDS011;57391;51.306;22.680;2024-01-25T01:18:17;6.90;;;1.80;;
70049;SDS011;57391;51.306;22.680;2024-01-25T01:20:18;5.10;;;1.20;;
70049;SDS011;57391;51.306;22.680;2024-01-25T01:22:20;4.80;;;1.20;;
70049;SDS011;57391;51.306;22.680;2024-01-25T01:24:22;4.40;;;1.40;;
70049;SDS011;57391;51.306;22.680;2024-01-25T01:26:23;8.40;;;1.50;;
70049;SDS011;57391;51.306;22.680;2024-01-25T01:28:25;5.10;;;1.10;;
70049;SDS011;57391;51.306;22.680;2024-01-25T01:30:27;6.40;;;1.40;;
70049;SDS011;57391;51.306;22.680;2024-01-25T01:32:28;5.40;;;1.40;;
70049;SDS011;57391;51.306;22.680;2024-01-25T01:34:31;6.50;;;1.70;;
70049;SDS011;57391;51.306;22.680;2024-01-25T01:36:32;3.80;;;1.30;;
70049;SDS011;57391;51.306;22.680;2024-01-25T01:38:34;7.10;;;1.50;;
70049;SDS011;57391;51.306;22.680;2024-01-25T01:40:36;3.50;;;1.30;;
70049;SDS011;57391;51.306;22.680;2024-01-25T01:42:37;3.20;;;1.30;;
70049;SDS011;57391;51.306;22.680;2024-01-25T01:44:39;5.90;;;1.70;;
70049;SDS011;57391;51.306;22.680;2024-01-25T01:46:41;4.80;;;1.30;;
70049;SDS011;57391;51.306;22.680;2024-01-25T01:48:44;5.60;;;1.40;;
70049;SDS011;57391;51.306;22.680;2024-01-25T01:50:47;3.60;;;1.20;;
70049;SDS011;57391;51.306;22.680;2024-01-25T01:52:50;4.90;;;1.30;;
70049;SDS011;57391;51.306;22.680;2024-01-25T01:54:53;5.80;;;1.50;;
70049;SDS011;57391;51.306;22.680;2024-01-25T01:56:55;4.40;;;1.70;;
70049;SDS011;57391;51.306;22.680;2024-01-25T01:59:01;4.90;;;1.40;;
70049;SDS011;57391;51.306;22.680;2024-01-25T02:01:07;4.50;;;1.50;;
70049;SDS011;57391;51.306;22.680;2024-01-25T02:03:09;4.00;;;1.20;;
70049;SDS011;57391;51.306;22.680;2024-01-25T02:05:11;5.10;;;1.30;;
70049;SDS011;57391;51.306;22.680;2024-01-25T02:07:12;7.90;;;1.90;;
70049;SDS011;57391;51.306;22.680;2024-01-25T02:09:15;6.00;;;1.50;;
70049;SDS011;57391;51.306;22.680;2024-01-25T02:11:18;6.30;;;1.60;;
70049;SDS011;57391;51.306;22.680;2024-01-25T02:13:21;8.00;;;1.80;;
70049;SDS011;57391;51.306;22.680;2024-01-25T02:15:23;6.80;;;1.60;;
70049;SDS011;57391;51.306;22.680;2024-01-25T02:17:25;5.70;;;1.50;;
70049;SDS011;57391;51.306;22.680;2024-01-25T02:19:26;5.90;;;1.40;;
70049;SDS011;57391;51.306;22.680;2024-01-25T02:21:28;9.80;;;1.90;;
70049;SDS011;57391;51.306;22.680;2024-01-25T02:23:30;4.00;;;1.40;;
70049;SDS011;57391;51.306;22.680;2024-01-25T02:25:32;7.20;;;1.40;;
70049;SDS011;57391;51.306;22.680;2024-01-25T02:27:34;6.10;;;1.50;;
70049;SDS011;57391;51.306;22.680;2024-01-25T02:29:39;8.10;;;1.80;;
70049;SDS011;57391;51.306;22.680;2024-01-25T02:31:41;7.80;;;1.50;;
70049;SDS011;57391;51.306;22.680;2024-01-25T02:33:43;5.00;;;1.40;;
70049;SDS011;57391;51.306;22.680;2024-01-25T02:35:45;6.00;;;1.50;;
70049;SDS011;57391;51.306;22.680;2024-01-25T02:37:46;8.10;;;1.70;;
70049;SDS011;57391;51.306;22.680;2024-01-25T02:39:48;8.40;;;1.60;;
70049;SDS011;57391;51.306;22.680;2024-01-25T02:41:50;4.80;;;1.50;;
70049;SDS011;57391;51.306;22.680;2024-01-25T02:43:52;5.30;;;1.60;;
70049;SDS011;57391;51.306;22.680;2024-01-25T02:45:54;6.70;;;1.60;;
70049;SDS011;57391;51.306;22.680;2024-01-25T02:47:55;7.20;;;1.50;;
70049;SDS011;57391;51.306;22.680;2024-01-25T02:49:57;7.00;;;1.40;;
70049;SDS011;57391;51.306;22.680;2024-01-25T02:51:59;6.90;;;1.50;;
70049;SDS011;57391;51.306;22.680;2024-01-25T02:54:00;6.20;;;1.20;;
70049;SDS011;57391;51.306;22.680;2024-01-25T02:56:02;6.00;;;1.50;;
70049;SDS011;57391;51.306;22.680;2024-01-25T02:58:04;6.30;;;2.00;;
70049;SDS011;57391;51.306;22.680;2024-01-25T03:00:06;5.80;;;1.50;;
70049;SDS011;57391;51.306;22.680;2024-01-25T03:02:08;6.10;;;1.80;;
70049;SDS011;57391;51.306;22.680;2024-01-25T03:04:10;7.50;;;1.40;;
70049;SDS011;57391;51.306;22.680;2024-01-25T03:06:12;7.00;;;1.70;;
70049;SDS011;57391;51.306;22.680;2024-01-25T03:08:14;9.30;;;1.50;;
70049;SDS011;57391;51.306;22.680;2024-01-25T03:10:16;8.20;;;1.60;;
70049;SDS011;57391;51.306;22.680;2024-01-25T03:12:21;5.10;;;1.50;;
70049;SDS011;57391;51.306;22.680;2024-01-25T03:14:23;7.80;;;1.80;;
70049;SDS011;57391;51.306;22.680;2024-01-25T03:16:24;7.20;;;1.90;;
70049;SDS011;57391;51.306;22.680;2024-01-25T03:18:26;9.40;;;1.70;;
70049;SDS011;57391;51.306;22.680;2024-01-25T03:20:28;5.40;;;1.40;;
70049;SDS011;57391;51.306;22.680;2024-01-25T03:22:30;8.50;;;1.70;;
70049;SDS011;57391;51.306;22.680;2024-01-25T03:24:32;6.80;;;1.60;;
70049;SDS011;57391;51.306;22.680;2024-01-25T03:26:34;7.70;;;1.50;;
70049;SDS011;57391;51.306;22.680;2024-01-25T03:28:35;9.60;;;1.80;;
70049;SDS011;57391;51.306;22.680;2024-01-25T03:30:38;5.10;;;1.40;;
70049;SDS011;57391;51.306;22.680;2024-01-25T03:32:40;7.00;;;1.30;;
70049;SDS011;57391;51.306;22.680;2024-01-25T03:34:42;8.70;;;1.60;;
70049;SDS011;57391;51.306;22.680;2024-01-25T03:36:43;9.90;;;2.10;;
70049;SDS011;57391;51.306;22.680;2024-01-25T03:38:45;8.60;;;1.70;;
70049;SDS011;57391;51.306;22.680;2024-01-25T03:40:47;6.80;;;2.00;;
70049;SDS011;57391;51.306;22.680;2024-01-25T03:42:48;5.70;;;1.60;;
70049;SDS011;57391;51.306;22.680;2024-01-25T03:44:51;5.70;;;1.40;;
70049;SDS011;57391;51.306;22.680;2024-01-25T03:46:53;4.70;;;1.20;;
70049;SDS011;57391;51.306;22.680;2024-01-25T03:48:55;5.80;;;1.40;;
70049;SDS011;57391;51.306;22.680;2024-01-25T03:50:57;8.70;;;1.60;;
70049;SDS011;57391;51.306;22.680;2024-01-25T03:52:58;7.00;;;1.90;;
70049;SDS011;57391;51.306;22.680;2024-01-25T03:55:00;4.80;;;1.40;;
70049;SDS011;57391;51.306;22.680;2024-01-25T03:57:02;10.10;;;2.00;;
70049;SDS011;57391;51.306;22.680;2024-01-25T03:59:04;7.90;;;1.70;;
70049;SDS011;57391;51.306;22.680;2024-01-25T04:01:11;9.70;;;1.70;;
70049;SDS011;57391;51.306;22.680;2024-01-25T04:03:13;7.10;;;1.60;;
70049;SDS011;57391;51.306;22.680;2024-01-25T04:05:18;9.20;;;1.50;;
70049;SDS011;57391;51.306;22.680;2024-01-25T04:07:19;9.60;;;1.70;;
70049;SDS011;57391;51.306;22.680;2024-01-25T04:09:21;8.10;;;2.80;;
70049;SDS011;57391;51.306;22.680;2024-01-25T04:11:22;7.50;;;1.70;;
70049;SDS011;57391;51.306;22.680;2024-01-25T04:13:24;5.30;;;1.50;;
70049;SDS011;57391;51.306;22.680;2024-01-25T04:15:26;4.40;;;1.20;;
70049;SDS011;57391;51.306;22.680;2024-01-25T04:17:28;4.60;;;1.60;;
70049;SDS011;57391;51.306;22.680;2024-01-25T04:19:30;4.90;;;1.50;;
70049;SDS011;57391;51.306;22.680;2024-01-25T04:21:31;6.50;;;1.20;;
70049;SDS011;57391;51.306;22.680;2024-01-25T04:23:33;6.70;;;1.50;;
70049;SDS011;57391;51.306;22.680;2024-01-25T04:25:35;4.20;;;1.10;;
70049;SDS011;57391;51.306;22.680;2024-01-25T04:27:38;6.70;;;1.30;;
70049;SDS011;57391;51.306;22.680;2024-01-25T04:29:40;6.60;;;1.30;;
70049;SDS011;57391;51.306;22.680;2024-01-25T04:31:45;6.60;;;1.40;;
70049;SDS011;57391;51.306;22.680;2024-01-25T04:33:49;6.80;;;1.20;;
70049;SDS011;57391;51.306;22.680;2024-01-25T04:35:51;4.10;;;1.40;;
70049;SDS011;57391;51.306;22.680;2024-01-25T04:37:53;4.40;;;1.30;;
70049;SDS011;57391;51.306;22.680;2024-01-25T04:39:54;5.30;;;1.20;;
70049;SDS011;57391;51.306;22.680;2024-01-25T04:41:56;5.00;;;1.10;;
70049;SDS011;57391;51.306;22.680;2024-01-25T04:43:58;5.60;;;1.30;;
70049;SDS011;57391;51.306;22.680;2024-01-25T04:45:59;5.40;;;1.20;;
70049;SDS011;57391;51.306;22.680;2024-01-25T04:48:01;6.50;;;1.30;;
70049;SDS011;57391;51.306;22.680;2024-01-25T04:50:03;5.30;;;1.30;;
70049;SDS011;57391;51.306;22.680;2024-01-25T04:52:05;5.10;;;1.20;;
70049;SDS011;57391;51.306;22.680;2024-01-25T04:54:07;4.60;;;1.30;;
70049;SDS011;57391;51.306;22.680;2024-01-25T04:56:12;5.30;;;1.10;;
70049;SDS011;57391;51.306;22.680;2024-01-25T04:58:14;7.80;;;1.40;;
70049;SDS011;57391;51.306;22.680;2024-01-25T05:00:16;4.20;;;1.30;;
70049;SDS011;57391;51.306;22.680;2024-01-25T05:02:18;6.80;;;1.20;;
70049;SDS011;57391;51.306;22.680;2024-01-25T05:04:20;4.10;;;1.10;;
70049;SDS011;57391;51.306;22.680;2024-01-25T05:06:22;4.10;;;1.30;;
70049;SDS011;57391;51.306;22.680;2024-01-25T05:08:24;5.80;;;1.50;;
70049;SDS011;57391;51.306;22.680;2024-01-25T05:10:26;8.50;;;1.50;;
70049;SDS011;57391;51.306;22.680;2024-01-25T05:12:28;6.30;;;1.50;;
70049;SDS011;57391;51.306;22.680;2024-01-25T05:14:29;7.30;;;1.70;;
70049;SDS011;57391;51.306;22.680;2024-01-25T05:16:31;8.20;;;1.80;;
70049;SDS011;57391;51.306;22.680;2024-01-25T05:18:33;7.40;;;1.70;;
70049;SDS011;57391;51.306;22.680;2024-01-25T05:20:35;8.40;;;1.50;;
70049;SDS011;57391;51.306;22.680;2024-01-25T05:22:38;9.30;;;1.50;;
70049;SDS011;57391;51.306;22.680;2024-01-25T05:24:42;7.20;;;1.30;;
70049;SDS011;57391;51.306;22.680;2024-01-25T05:26:44;10.50;;;1.90;;
70049;SDS011;57391;51.306;22.680;2024-01-25T05:28:46;7.20;;;1.40;;
70049;SDS011;57391;51.306;22.680;2024-01-25T05:30:47;5.20;;;1.40;;
70049;SDS011;57391;51.306;22.680;2024-01-25T05:32:50;4.40;;;1.30;;
70049;SDS011;57391;51.306;22.680;2024-01-25T05:34:54;5.70;;;1.50;;
70049;SDS011;57391;51.306;22.680;2024-01-25T05:36:56;5.30;;;1.60;;
70049;SDS011;57391;51.306;22.680;2024-01-25T05:38:58;6.20;;;1.50;;
70049;SDS011;57391;51.306;22.680;2024-01-25T05:40:59;6.90;;;1.50;;
70049;SDS011;57391;51.306;22.680;2024-01-25T05:43:01;6.00;;;1.30;;
70049;SDS011;57391;51.306;22.680;2024-01-25T05:45:04;7.10;;;1.40;;
70049;SDS011;57391;51.306;22.680;2024-01-25T05:47:06;4.70;;;1.70;;
70049;SDS011;57391;51.306;22.680;2024-01-25T05:49:08;8.90;;;1.80;;
70049;SDS011;57391;51.306;22.680;2024-01-25T05:51:10;8.10;;;1.40;;
70049;SDS011;57391;51.306;22.680;2024-01-25T05:53:12;4.70;;;1.20;;
70049;SDS011;57391;51.306;22.680;2024-01-25T05:55:15;6.00;;;1.30;;
70049;SDS011;57391;51.306;22.680;2024-01-25T05:57:16;5.90;;;1.40;;
70049;SDS011;57391;51.306;22.680;2024-01-25T05:59:20;6.20;;;1.20;;
70049;SDS011;57391;51.306;22.680;2024-01-25T06:01:22;8.80;;;1.30;;
70049;SDS011;57391;51.306;22.680;2024-01-25T06:03:23;8.30;;;1.60;;
70049;SDS011;57391;51.306;22.680;2024-01-25T06:05:25;6.20;;;1.30;;
70049;SDS011;57391;51.306;22.680;2024-01-25T06:07:27;8.20;;;1.40;;
70049;SDS011;57391;51.306;22.680;2024-01-25T06:09:29;4.80;;;1.30;;
70049;SDS011;57391;51.306;22.680;2024-01-25T06:11:31;5.10;;;0.90;;
70049;SDS011;57391;51.306;22.680;2024-01-25T06:13:34;4.50;;;1.20;;
70049;SDS011;57391;51.306;22.680;2024-01-25T06:15:36;6.30;;;1.30;;
70049;SDS011;57391;51.306;22.680;2024-01-25T06:17:38;6.50;;;1.60;;
70049;SDS011;57391;51.306;22.680;2024-01-25T06:19:40;9.90;;;1.80;;
70049;SDS011;57391;51.306;22.680;2024-01-25T06:21:41;7.60;;;1.50;;
70049;SDS011;57391;51.306;22.680;2024-01-25T06:23:43;5.70;;;1.60;;
70049;SDS011;57391;51.306;22.680;2024-01-25T06:25:45;5.10;;;1.30;;
70049;SDS011;57391;51.306;22.680;2024-01-25T06:27:47;5.30;;;1.30;;
70049;SDS011;57391;51.306;22.680;2024-01-25T06:29:49;7.40;;;1.60;;
70049;SDS011;57391;51.306;22.680;2024-01-25T06:31:51;6.00;;;1.50;;
70049;SDS011;57391;51.306;22.680;2024-01-25T06:33:53;5.20;;;1.30;;
70049;SDS011;57391;51.306;22.680;2024-01-25T06:35:56;5.40;;;1.30;;
70049;SDS011;57391;51.306;22.680;2024-01-25T06:37:59;6.10;;;1.60;;
70049;SDS011;57391;51.306;22.680;2024-01-25T06:40:01;6.20;;;1.60;;
70049;SDS011;57391;51.306;22.680;2024-01-25T06:42:04;3.80;;;1.30;;
70049;SDS011;57391;51.306;22.680;2024-01-25T06:44:06;7.00;;;1.60;;
70049;SDS011;57391;51.306;22.680;2024-01-25T06:46:08;6.40;;;1.40;;
70049;SDS011;57391;51.306;22.680;2024-01-25T06:48:10;4.00;;;1.40;;
70049;SDS011;57391;51.306;22.680;2024-01-25T06:50:12;6.40;;;1.80;;
70049;SDS011;57391;51.306;22.680;2024-01-25T06:52:14;6.10;;;1.60;;
70049;SDS011;57391;51.306;22.680;2024-01-25T06:54:15;5.10;;;1.70;;
70049;SDS011;57391;51.306;22.680;2024-01-25T06:56:17;7.10;;;1.90;;
70049;SDS011;57391;51.306;22.680;2024-01-25T06:58:19;4.80;;;1.30;;
70049;SDS011;57391;51.306;22.680;2024-01-25T07:00:21;7.50;;;1.60;;
70049;SDS011;57391;51.306;22.680;2024-01-25T07:02:24;4.90;;;1.30;;
70049;SDS011;57391;51.306;22.680;2024-01-25T07:04:25;8.90;;;1.70;;
70049;SDS011;57391;51.306;22.680;2024-01-25T07:06:27;6.10;;;1.90;;
70049;SDS011;57391;51.306;22.680;2024-01-25T07:08:29;7.10;;;1.90;;
70049;SDS011;57391;51.306;22.680;2024-01-25T07:10:31;8.40;;;2.00;;
70049;SDS011;57391;51.306;22.680;2024-01-25T07:12:33;7.30;;;1.50;;
70049;SDS011;57391;51.306;22.680;2024-01-25T07:14:35;5.50;;;1.30;;
70049;SDS011;57391;51.306;22.680;2024-01-25T07:16:36;5.20;;;1.40;;
70049;SDS011;57391;51.306;22.680;2024-01-25T07:18:38;6.00;;;1.50;;
70049;SDS011;57391;51.306;22.680;2024-01-25T07:20:40;5.40;;;1.60;;
70049;SDS011;57391;51.306;22.680;2024-01-25T07:22:42;7.60;;;1.90;;
70049;SDS011;57391;51.306;22.680;2024-01-25T07:24:44;5.70;;;1.50;;
70049;SDS011;57391;51.306;22.680;2024-01-25T07:26:46;5.30;;;1.60;;
70049;SDS011;57391;51.306;22.680;2024-01-25T07:28:48;6.40;;;1.60;;
70049;SDS011;57391;51.306;22.680;2024-01-25T07:30:50;7.00;;;1.90;;
70049;SDS011;57391;51.306;22.680;2024-01-25T07:32:52;6.10;;;1.60;;
70049;SDS011;57391;51.306;22.680;2024-01-25T07:34:54;4.00;;;1.20;;
70049;SDS011;57391;51.306;22.680;2024-01-25T07:36:55;8.30;;;1.70;;
70049;SDS011;57391;51.306;22.680;2024-01-25T07:38:58;8.70;;;1.60;;
70049;SDS011;57391;51.306;22.680;2024-01-25T07:40:59;6.20;;;1.70;;
70049;SDS011;57391;51.306;22.680;2024-01-25T07:43:01;6.50;;;1.60;;
70049;SDS011;57391;51.306;22.680;2024-01-25T07:45:04;5.50;;;1.50;;
70049;SDS011;57391;51.306;22.680;2024-01-25T07:47:06;8.50;;;1.90;;
70049;SDS011;57391;51.306;22.680;2024-01-25T07:49:08;9.40;;;1.70;;
70049;SDS011;57391;51.306;22.680;2024-01-25T07:51:13;10.60;;;2.40;;
70049;SDS011;57391;51.306;22.680;2024-01-25T07:53:15;7.20;;;2.20;;
70049;SDS011;57391;51.306;22.680;2024-01-25T07:55:17;9.90;;;2.10;;
70049;SDS011;57391;51.306;22.680;2024-01-25T07:57:19;8.10;;;1.80;;
70049;SDS011;57391;51.306;22.680;2024-01-25T07:59:21;8.70;;;2.10;;
70049;SDS011;57391;51.306;22.680;2024-01-25T08:01:22;6.90;;;1.90;;
70049;SDS011;57391;51.306;22.680;2024-01-25T08:03:24;8.60;;;2.10;;
70049;SDS011;57391;51.306;22.680;2024-01-25T08:05:26;7.50;;;1.50;;
70049;SDS011;57391;51.306;22.680;2024-01-25T08:07:30;7.10;;;1.90;;
70049;SDS011;57391;51.306;22.680;2024-01-25T08:09:35;7.70;;;2.40;;
70049;SDS011;57391;51.306;22.680;2024-01-25T08:11:37;9.30;;;1.90;;
70049;SDS011;57391;51.306;22.680;2024-01-25T08:13:41;8.40;;;1.90;;
70049;SDS011;57391;51.306;22.680;2024-01-25T08:15:43;6.40;;;1.80;;
70049;SDS011;57391;51.306;22.680;2024-01-25T08:17:45;7.50;;;2.20;;
70049;SDS011;57391;51.306;22.680;2024-01-25T08:19:47;8.20;;;2.10;;
70049;SDS011;57391;51.306;22.680;2024-01-25T08:21:49;6.70;;;1.90;;
70049;SDS011;57391;51.306;22.680;2024-01-25T08:23:51;7.70;;;2.10;;
70049;SDS011;57391;51.306;22.680;2024-01-25T08:25:52;5.50;;;1.80;;
70049;SDS011;57391;51.306;22.680;2024-01-25T08:27:54;8.10;;;2.10;;
70049;SDS011;57391;51.306;22.680;2024-01-25T08:29:56;7.90;;;2.10;;
70049;SDS011;57391;51.306;22.680;2024-01-25T08:31:58;7.50;;;1.80;;
70049;SDS011;57391;51.306;22.680;2024-01-25T08:34:00;7.70;;;1.90;;
70049;SDS011;57391;51.306;22.680;2024-01-25T08:36:02;9.10;;;2.20;;
70049;SDS011;57391;51.306;22.680;2024-01-25T08:38:04;7.60;;;2.00;;
70049;SDS011;57391;51.306;22.680;2024-01-25T08:40:06;7.70;;;1.70;;
70049;SDS011;57391;51.306;22.680;2024-01-25T08:42:11;6.60;;;2.10;;
70049;SDS011;57391;51.306;22.680;2024-01-25T08:44:13;8.40;;;2.10;;
70049;SDS011;57391;51.306;22.680;2024-01-25T08:46:15;7.90;;;2.10;;
70049;SDS011;57391;51.306;22.680;2024-01-25T08:48:17;6.40;;;1.80;;
70049;SDS011;57391;51.306;22.680;2024-01-25T08:50:19;8.20;;;1.80;;
70049;SDS011;57391;51.306;22.680;2024-01-25T08:52:21;7.30;;;2.00;;
70049;SDS011;57391;51.306;22.680;2024-01-25T08:54:22;7.50;;;1.90;;
70049;SDS011;57391;51.306;22.680;2024-01-25T08:56:24;7.40;;;2.30;;
70049;SDS011;57391;51.306;22.680;2024-01-25T08:58:26;7.00;;;2.20;;
70049;SDS011;57391;51.306;22.680;2024-01-25T09:00:28;7.60;;;1.90;;
70049;SDS011;57391;51.306;22.680;2024-01-25T09:02:29;4.70;;;1.80;;
70049;SDS011;57391;51.306;22.680;2024-01-25T09:04:34;6.70;;;2.10;;
70049;SDS011;57391;51.306;22.680;2024-01-25T09:06:35;6.40;;;1.90;;
70049;SDS011;57391;51.306;22.680;2024-01-25T09:08:38;9.40;;;2.10;;
70049;SDS011;57391;51.306;22.680;2024-01-25T09:10:41;7.20;;;2.20;;
70049;SDS011;57391;51.306;22.680;2024-01-25T09:12:43;6.30;;;1.60;;
70049;SDS011;57391;51.306;22.680;2024-01-25T09:14:45;5.70;;;1.90;;
70049;SDS011;57391;51.306;22.680;2024-01-25T09:16:48;5.00;;;1.80;;
70049;SDS011;57391;51.306;22.680;2024-01-25T09:18:50;4.30;;;1.70;;
70049;SDS011;57391;51.306;22.680;2024-01-25T09:20:52;5.50;;;1.80;;
70049;SDS011;57391;51.306;22.680;2024-01-25T09:22:54;4.70;;;1.70;;
70049;SDS011;57391;51.306;22.680;2024-01-25T09:24:56;3.70;;;1.30;;
70049;SDS011;57391;51.306;22.680;2024-01-25T09:26:58;4.80;;;1.50;;
70049;SDS011;57391;51.306;22.680;2024-01-25T09:29:00;4.70;;;1.60;;
70049;SDS011;57391;51.306;22.680;2024-01-25T09:31:02;4.40;;;1.90;;
70049;SDS011;57391;51.306;22.680;2024-01-25T09:33:05;4.70;;;1.60;;
70049;SDS011;57391;51.306;22.680;2024-01-25T09:35:07;6.40;;;1.70;;
70049;SDS011;57391;51.306;22.680;2024-01-25T09:37:09;6.60;;;1.90;;
70049;SDS011;57391;51.306;22.680;2024-01-25T09:39:11;6.00;;;1.70;;
70049;SDS011;57391;51.306;22.680;2024-01-25T09:41:14;3.30;;;1.40;;
70049;SDS011;57391;51.306;22.680;2024-01-25T09:43:15;6.20;;;1.70;;
70049;SDS011;57391;51.306;22.680;2024-01-25T09:45:18;3.40;;;1.50;;
70049;SDS011;57391;51.306;22.680;2024-01-25T09:47:21;6.10;;;1.50;;
70049;SDS011;57391;51.306;22.680;2024-01-25T09:49:23;3.50;;;1.30;;
70049;SDS011;57391;51.306;22.680;2024-01-25T09:51:25;4.60;;;1.50;;
70049;SDS011;57391;51.306;22.680;2024-01-25T09:53:30;3.60;;;1.40;;
70049;SDS011;57391;51.306;22.680;2024-01-25T09:55:38;3.90;;;1.50;;
70049;SDS011;57391;51.306;22.680;2024-01-25T09:57:45;6.10;;;2.00;;
70049;SDS011;57391;51.306;22.680;2024-01-25T09:59:48;5.00;;;1.50;;
70049;SDS011;57391;51.306;22.680;2024-01-25T10:01:52;4.20;;;1.80;;
70049;SDS011;57391;51.306;22.680;2024-01-25T10:03:54;4.30;;;1.60;;
70049;SDS011;57391;51.306;22.680;2024-01-25T10:05:59;6.10;;;2.40;;
70049;SDS011;57391;51.306;22.680;2024-01-25T10:08:01;4.80;;;1.90;;
70049;SDS011;57391;51.306;22.680;2024-01-25T10:10:03;4.20;;;2.00;;
70049;SDS011;57391;51.306;22.680;2024-01-25T10:12:07;3.90;;;1.60;;
70049;SDS011;57391;51.306;22.680;2024-01-25T10:14:09;5.60;;;1.90;;
70049;SDS011;57391;51.306;22.680;2024-01-25T10:16:16;5.20;;;2.00;;
70049;SDS011;57391;51.306;22.680;2024-01-25T10:18:18;6.50;;;2.10;;
70049;SDS011;57391;51.306;22.680;2024-01-25T10:20:20;3.80;;;1.70;;
70049;SDS011;57391;51.306;22.680;2024-01-25T10:22:25;6.00;;;2.20;;
70049;SDS011;57391;51.306;22.680;2024-01-25T10:24:28;5.00;;;2.00;;
70049;SDS011;57391;51.306;22.680;2024-01-25T10:26:30;5.80;;;2.00;;
70049;SDS011;57391;51.306;22.680;2024-01-25T10:28:32;4.50;;;1.80;;
70049;SDS011;57391;51.306;22.680;2024-01-25T10:30:35;5.60;;;2.10;;
70049;SDS011;57391;51.306;22.680;2024-01-25T10:32:39;5.60;;;1.80;;
70049;SDS011;57391;51.306;22.680;2024-01-25T10:34:43;4.30;;;1.80;;
70049;SDS011;57391;51.306;22.680;2024-01-25T10:36:47;4.70;;;2.00;;
70049;SDS011;57391;51.306;22.680;2024-01-25T10:38:49;5.70;;;2.10;;
70049;SDS011;57391;51.306;22.680;2024-01-25T10:40:52;6.50;;;2.30;;
70049;SDS011;57391;51.306;22.680;2024-01-25T10:42:55;6.40;;;2.20;;
70049;SDS011;57391;51.306;22.680;2024-01-25T10:44:57;6.50;;;2.30;;
70049;SDS011;57391;51.306;22.680;2024-01-25T10:46:59;8.00;;;2.20;;
70049;SDS011;57391;51.306;22.680;2024-01-25T10:49:01;6.90;;;2.30;;
70049;SDS011;57391;51.306;22.680;2024-01-25T10:51:04;4.80;;;1.90;;
70049;SDS011;57391;51.306;22.680;2024-01-25T10:53:07;12.60;;;3.00;;
70049;SDS011;57391;51.306;22.680;2024-01-25T10:55:11;6.70;;;2.20;;
70049;SDS011;57391;51.306;22.680;2024-01-25T10:57:13;7.90;;;2.70;;
70049;SDS011;57391;51.306;22.680;2024-01-25T10:59:16;5.50;;;2.30;;
70049;SDS011;57391;51.306;22.680;2024-01-25T11:01:21;6.50;;;2.50;;
70049;SDS011;57391;51.306;22.680;2024-01-25T11:03:27;6.60;;;2.80;;
70049;SDS011;57391;51.306;22.680;2024-01-25T11:05:30;5.50;;;2.40;;
70049;SDS011;57391;51.306;22.680;2024-01-25T11:07:47;5.50;;;2.20;;
70049;SDS011;57391;51.306;22.680;2024-01-25T11:09:53;7.60;;;2.70;;
70049;SDS011;57391;51.306;22.680;2024-01-25T11:11:55;7.00;;;2.90;;
70049;SDS011;57391;51.306;22.680;2024-01-25T11:13:58;6.50;;;2.90;;
70049;SDS011;57391;51.306;22.680;2024-01-25T11:16:17;6.30;;;2.80;;
70049;SDS011;57391;51.306;22.680;2024-01-25T11:18:28;4.20;;;2.10;;
70049;SDS011;57391;51.306;22.680;2024-01-25T11:20:30;5.50;;;2.20;;
70049;SDS011;57391;51.306;22.680;2024-01-25T11:22:35;10.40;;;4.50;;
70049;SDS011;57391;51.306;22.680;2024-01-25T11:24:38;6.60;;;3.30;;
70049;SDS011;57391;51.306;22.680;2024-01-25T11:26:44;9.00;;;3.30;;
70049;SDS011;57391;51.306;22.680;2024-01-25T11:28:47;7.00;;;3.30;;
70049;SDS011;57391;51.306;22.680;2024-01-25T11:30:49;5.90;;;2.60;;
70049;SDS011;57391;51.306;22.680;2024-01-25T11:32:50;6.10;;;2.30;;
70049;SDS011;57391;51.306;22.680;2024-01-25T11:34:59;5.20;;;2.20;;
70049;SDS011;57391;51.306;22.680;2024-01-25T11:37:01;6.10;;;2.50;;
70049;SDS011;57391;51.306;22.680;2024-01-25T11:39:06;6.80;;;2.30;;
70049;SDS011;57391;51.306;22.680;2024-01-25T11:41:08;5.40;;;2.30;;
70049;SDS011;57391;51.306;22.680;2024-01-25T11:43:10;7.70;;;2.40;;
70049;SDS011;57391;51.306;22.680;2024-01-25T11:45:14;6.80;;;2.80;;
70049;SDS011;57391;51.306;22.680;2024-01-25T11:47:16;6.90;;;2.00;;
70049;SDS011;57391;51.306;22.680;2024-01-25T11:49:18;5.40;;;1.90;;
70049;SDS011;57391;51.306;22.680;2024-01-25T11:51:19;4.40;;;2.00;;
70049;SDS011;57391;51.306;22.680;2024-01-25T11:53:21;4.90;;;1.80;;
70049;SDS011;57391;51.306;22.680;2024-01-25T11:55:23;4.60;;;2.30;;
70049;SDS011;57391;51.306;22.680;2024-01-25T11:57:25;4.90;;;1.60;;
70049;SDS011;57391;51.306;22.680;2024-01-25T11:59:27;4.70;;;1.60;;
70049;SDS011;57391;51.306;22.680;2024-01-25T12:01:29;4.90;;;1.90;;
70049;SDS011;57391;51.306;22.680;2024-01-25T12:03:32;5.80;;;1.90;;
70049;SDS011;57391;51.306;22.680;2024-01-25T12:05:34;4.30;;;1.70;;